createdAt,value
2017-09-17T00:02:10.952Z,95437
2017-09-17T00:04:45.909Z,95445
2017-09-17T00:07:15.052Z,95441
2017-09-17T00:09:43.797Z,95444
2017-09-17T00:12:12.496Z,95436
2017-09-17T00:14:41.948Z,95442
2017-09-17T00:17:10.634Z,95449
2017-09-17T00:19:39.339Z,95449
2017-09-17T00:22:08.021Z,95459
2017-09-17T00:24:37.683Z,95447
2017-09-17T00:27:12.668Z,95445
2017-09-17T00:29:41.343Z,95454
2017-09-17T00:32:18.315Z,95448
2017-09-17T00:34:46.993Z,95446
2017-09-17T00:37:15.674Z,95443
2017-09-17T00:39:44.367Z,95439
2017-09-17T00:42:13.052Z,95433
2017-09-17T00:44:41.755Z,95434
2017-09-17T00:47:16.708Z,95439
2017-09-17T00:49:45.416Z,95446
2017-09-17T00:52:14.866Z,95444
2017-09-17T00:54:43.547Z,95443
2017-09-17T00:57:12.239Z,95440
2017-09-17T00:59:40.921Z,95443
2017-09-17T01:02:09.630Z,95452
2017-09-17T01:04:38.315Z,95452
2017-09-17T01:07:12.443Z,95449
2017-09-17T01:09:41.124Z,95448
2017-09-17T01:12:09.808Z,95447
2017-09-17T01:14:39.363Z,95442
2017-09-17T01:17:08.043Z,95449
2017-09-17T01:19:36.855Z,95446
2017-09-17T01:22:05.542Z,95451
2017-09-17T01:24:34.232Z,95459
2017-09-17T01:27:03.752Z,95453
2017-09-17T01:29:32.443Z,95453
2017-09-17T01:32:01.150Z,95447
2017-09-17T01:34:30.611Z,95458
2017-09-17T01:36:59.305Z,95445
2017-09-17T01:39:28.012Z,95449
2017-09-17T01:41:56.687Z,95440
2017-09-17T01:44:27.247Z,95441
2017-09-17T01:46:56.703Z,95445
2017-09-17T01:49:25.397Z,95443
2017-09-17T01:51:54.092Z,95449
2017-09-17T01:54:29.499Z,95443
2017-09-17T01:56:58.215Z,95443
2017-09-17T01:59:26.910Z,95445
2017-09-17T02:01:55.596Z,95440
2017-09-17T02:04:24.311Z,95442
2017-09-17T02:06:59.917Z,95443
2017-09-17T02:09:28.655Z,95438
2017-09-17T02:11:57.355Z,95443
2017-09-17T02:14:26.068Z,95441
2017-09-17T02:17:13.942Z,95438
2017-09-17T02:19:42.638Z,95441
2017-09-17T02:22:12.139Z,95437
2017-09-17T02:24:41.605Z,95440
2017-09-17T02:27:11.296Z,95437
2017-09-17T02:29:40.000Z,95454
2017-09-17T02:32:08.700Z,95447
2017-09-17T02:34:38.268Z,95448
2017-09-17T02:37:06.981Z,95446
2017-09-17T02:39:35.701Z,95441
2017-09-17T02:42:04.412Z,95450
2017-09-17T02:44:33.128Z,95449
2017-09-17T02:47:02.012Z,95441
2017-09-17T02:49:31.630Z,95446
2017-09-17T02:52:00.323Z,95445
2017-09-17T02:54:29.047Z,95442
2017-09-17T02:57:00.400Z,95437
2017-09-17T02:59:35.281Z,95447
2017-09-17T03:02:06.479Z,95442
2017-09-17T03:04:36.484Z,95431
2017-09-17T03:07:05.495Z,95451
2017-09-17T03:09:35.165Z,95440
2017-09-17T03:12:05.015Z,95440
2017-09-17T03:14:40.231Z,95447
2017-09-17T03:17:09.297Z,95442
2017-09-17T03:19:39.074Z,95443
2017-09-17T03:22:08.151Z,95436
2017-09-17T03:24:37.168Z,95439
2017-09-17T03:27:05.951Z,95437
2017-09-17T03:29:34.794Z,95433
2017-09-17T03:32:03.683Z,95434
2017-09-17T03:34:32.488Z,95442
2017-09-17T03:37:02.082Z,95437
2017-09-17T03:39:31.031Z,95437
2017-09-17T03:42:00.642Z,95440
2017-09-17T03:44:29.556Z,95450
2017-09-17T03:46:58.341Z,95444
2017-09-17T03:49:27.591Z,95444
2017-09-17T03:51:57.386Z,95435
2017-09-17T03:54:27.387Z,95432
2017-09-17T03:56:56.507Z,95434
2017-09-17T03:59:25.768Z,95434
2017-09-17T04:01:57.805Z,95430
2017-09-17T04:04:26.886Z,95429
2017-09-17T04:06:56.134Z,95434
2017-09-17T04:09:25.266Z,95438
2017-09-17T04:11:54.360Z,95442
2017-09-17T04:14:25.322Z,95436
2017-09-17T04:16:54.401Z,95438
2017-09-17T04:19:23.589Z,95439
2017-09-17T04:21:53.262Z,95447
2017-09-17T04:24:22.441Z,95440
2017-09-17T04:26:51.763Z,95443
2017-09-17T04:29:21.604Z,95453
2017-09-17T04:31:51.090Z,95454
2017-09-17T04:34:20.188Z,95447
2017-09-17T04:36:48.985Z,95451
2017-09-17T04:39:18.489Z,95444
2017-09-17T04:41:47.251Z,95448
2017-09-17T04:44:15.976Z,95460
2017-09-17T04:46:44.666Z,95459
2017-09-17T04:49:13.364Z,95463
2017-09-17T04:51:42.073Z,95463
2017-09-17T04:54:10.772Z,95473
2017-09-17T04:56:45.683Z,95468
2017-09-17T04:59:19.186Z,95468
2017-09-17T05:01:54.019Z,95476
2017-09-17T05:04:22.705Z,95478
2017-09-17T05:06:51.412Z,95478
2017-09-17T05:09:26.285Z,95479
2017-09-17T05:11:54.962Z,95486
2017-09-17T05:14:23.684Z,95480
2017-09-17T05:16:52.371Z,95476
2017-09-17T05:19:21.048Z,95487
2017-09-17T05:21:49.747Z,95489
2017-09-17T05:24:18.435Z,95491
2017-09-17T05:26:47.157Z,95486
2017-09-17T05:29:16.594Z,95491
2017-09-17T05:31:45.272Z,95495
2017-09-17T05:34:13.968Z,95498
2017-09-17T05:36:47.779Z,95493
2017-09-17T05:39:16.482Z,95493
2017-09-17T05:41:45.180Z,95497
2017-09-17T05:44:13.860Z,95498
2017-09-17T05:46:42.559Z,95493
2017-09-17T05:49:13.177Z,95495
2017-09-17T05:51:41.871Z,95501
2017-09-17T05:54:12.184Z,95502
2017-09-17T05:56:40.891Z,95497
2017-09-17T05:59:09.571Z,95499
2017-09-17T06:01:39.161Z,95499
2017-09-17T06:04:07.847Z,95500
2017-09-17T06:06:36.531Z,95502
2017-09-17T06:09:11.480Z,95501
2017-09-17T06:11:40.164Z,95507
2017-09-17T06:14:13.459Z,95500
2017-09-17T06:16:48.407Z,95504
2017-09-17T06:22:29.730Z,95506
2017-09-17T06:25:14.992Z,95507
2017-09-17T06:28:13.449Z,95508
2017-09-17T06:31:02.357Z,95509
2017-09-17T06:36:09.392Z,95506
2017-09-17T06:38:46.406Z,95501
2017-09-17T06:41:29.821Z,95504
2017-09-17T06:47:04.307Z,95509
2017-09-17T06:49:47.760Z,95516
2017-09-17T06:52:24.190Z,95514
2017-09-17T06:54:53.841Z,95515
2017-09-17T06:57:24.876Z,95516
2017-09-17T06:59:57.777Z,95520
2017-09-17T07:02:54.916Z,95513
2017-09-17T07:05:30.935Z,95519
